createdAt,value
2022-08-04T09:11:00.954Z,99790.47
2022-08-04T09:13:46.155Z,99795.34
2022-08-04T09:16:20.428Z,99792.41
2022-08-04T09:19:22.876Z,99794.13
2022-08-04T09:22:18.906Z,99788.09
2022-08-04T09:25:01.372Z,99789.72
2022-08-04T09:27:43.924Z,99794.78
2022-08-04T09:30:12.478Z,99811.63
2022-08-04T09:32:41.320Z,99795.19
2022-08-04T09:35:27.437Z,99794.97
2022-08-04T09:38:00.886Z,99795.56
2022-08-04T09:40:53.808Z,99789.88
2022-08-04T09:43:57.039Z,99793.97
2022-08-04T09:46:21.307Z,99797.72
2022-08-04T09:48:55.507Z,99786.53
2022-08-04T09:51:57.222Z,99768.59
2022-08-04T09:54:39.337Z,99771.09
2022-08-04T09:57:21.660Z,99763.91
2022-08-04T10:00:04.757Z,99769.28
2022-08-04T10:02:45.034Z,99771.78
2022-08-04T10:05:17.439Z,99765.25
2022-08-04T10:07:59.629Z,99755.13
2022-08-04T10:10:52.279Z,99761.78
2022-08-04T10:13:57.248Z,99760.50
2022-08-04T10:16:47.527Z,99768.88
2022-08-04T10:19:28.700Z,99752.97
2022-08-04T10:22:28.930Z,99748.69
2022-08-04T10:25:37.633Z,99753.12
2022-08-04T10:27:59.010Z,99750.16
2022-08-04T10:30:26.505Z,99744.19
2022-08-04T10:33:08.665Z,99751.38
2022-08-04T10:35:38.991Z,99742.97
2022-08-04T10:38:33.570Z,99755.28
2022-08-04T10:41:11.651Z,99743.41
2022-08-04T10:44:05.880Z,99743.25
2022-08-04T10:46:36.560Z,99733.63
2022-08-04T10:49:43.722Z,99741.31
2022-08-04T10:52:24.020Z,99741.94
2022-08-04T10:55:14.614Z,99739.66
2022-08-04T10:57:51.008Z,99752.28
2022-08-04T11:00:21.722Z,99760.31
2022-08-04T11:02:57.169Z,99754.53
2022-08-04T11:05:24.822Z,99754.81
2022-08-04T11:07:53.925Z,99766.09
2022-08-04T11:10:22.855Z,99756.22
2022-08-04T11:12:56.296Z,99767.38
2022-08-04T11:15:55.449Z,99766.66
2022-08-04T11:18:37.850Z,99766.06
2022-08-04T11:21:15.629Z,99763.09
2022-08-04T11:23:47.069Z,99774.31
2022-08-04T11:26:22.200Z,99770.06
2022-08-04T11:29:15.111Z,99775.56
2022-08-04T11:31:47.282Z,99767.47
2022-08-04T11:34:27.402Z,99772.53
2022-08-04T11:37:17.793Z,99766.25
2022-08-04T11:39:48.973Z,99764.56
2022-08-04T11:42:18.629Z,99752.78
2022-08-04T11:45:05.299Z,99755.06
2022-08-04T11:47:41.652Z,99754.25
2022-08-04T11:50:21.216Z,99758.88
2022-08-04T11:52:48.737Z,99744.72
2022-08-04T11:55:17.293Z,99739.84
2022-08-04T11:57:44.689Z,99733.75
2022-08-04T12:00:13.421Z,99732.59
2022-08-04T12:02:59.611Z,99734.06
2022-08-04T12:05:36.745Z,99731.81
2022-08-04T12:08:21.981Z,99742.87
2022-08-04T12:11:07.718Z,99727.59
2022-08-04T12:13:40.821Z,99724.34
2022-08-04T12:16:37.581Z,99721.75
2022-08-04T12:19:18.276Z,99720.44
2022-08-04T12:21:55.843Z,99714.94
2022-08-04T12:24:28.717Z,99719.91
2022-08-04T12:27:04.892Z,99713.38
2022-08-04T12:29:33.744Z,99703.84
2022-08-04T12:32:04.538Z,99706.81
2022-08-04T12:34:35.374Z,99709.38
2022-08-04T12:37:03.572Z,99716.69
2022-08-04T12:39:31.375Z,99714.81
2022-08-04T12:42:21.587Z,99717.06
2022-08-04T12:44:54.068Z,99705.03
2022-08-04T12:47:29.068Z,99708.66
2022-08-04T12:50:04.733Z,99701.31
2022-08-04T12:55:33.700Z,99697.25
2022-08-04T12:58:02.174Z,99687.34
2022-08-04T13:00:40.233Z,99696.28
2022-08-04T13:03:10.922Z,99692.97
2022-08-04T13:05:41.789Z,99687.56
2022-08-04T13:08:10.890Z,99678.78
2022-08-04T13:10:42.222Z,99677.56
2022-08-04T13:13:29.001Z,99687.84
2022-08-04T13:16:00.613Z,99688.69
2022-08-04T13:18:32.327Z,99683.28
2022-08-04T13:21:19.495Z,99683.78
2022-08-04T13:24:20.265Z,99684.78
2022-08-04T13:27:03.503Z,99679.91
2022-08-04T13:29:59.524Z,99670.78
2022-08-04T13:32:28.722Z,99672.16
2022-08-04T13:34:56.650Z,99666.72
2022-08-04T13:37:36.721Z,99660.41
2022-08-04T13:40:05.550Z,99662.59
2022-08-04T13:42:34.409Z,99670.91
2022-08-04T13:45:03.529Z,99657.94
2022-08-04T13:47:34.969Z,99657.31
2022-08-04T13:50:12.989Z,99657.97
2022-08-04T13:52:41.930Z,99646.97
2022-08-04T13:55:19.214Z,99636.38
2022-08-04T13:57:47.440Z,99634.22
2022-08-04T14:00:16.973Z,99643.41
2022-08-04T14:03:19.141Z,99637.13
2022-08-04T14:06:14.601Z,99636.13
2022-08-04T14:08:51.597Z,99632.97
2022-08-04T14:12:10.857Z,99630.00
2022-08-04T14:14:27.610Z,99626.28
2022-08-04T14:16:55.660Z,99623.75
2022-08-04T14:19:25.857Z,99616.31
2022-08-04T14:21:56.655Z,99616.84
2022-08-04T14:24:27.868Z,99618.19
2022-08-04T14:27:01.573Z,99622.88
2022-08-04T14:29:38.816Z,99626.28
2022-08-04T14:32:12.966Z,99620.63
2022-08-04T14:34:44.760Z,99627.00
2022-08-04T14:37:17.605Z,99622.38
2022-08-04T14:40:08.183Z,99619.31
2022-08-04T14:42:42.622Z,99613.84
2022-08-04T14:45:10.459Z,99622.34
2022-08-04T14:47:52.963Z,99614.22
2022-08-04T14:50:21.506Z,99619.59
2022-08-04T14:52:48.973Z,99613.47
2022-08-04T14:55:17.981Z,99613.00
2022-08-04T14:58:35.570Z,99614.94
2022-08-04T15:00:34.533Z,99616.12
2022-08-04T15:03:08.671Z,99609.75
2022-08-04T15:06:03.208Z,99603.50
2022-08-04T15:08:31.258Z,99617.03
2022-08-04T15:11:03.309Z,99610.63
2022-08-04T15:13:32.406Z,99602.66
2022-08-04T15:16:06.407Z,99613.81
2022-08-04T15:18:35.892Z,99615.78
2022-08-04T15:21:04.609Z,99617.25
2022-08-04T15:23:38.402Z,99612.44
2022-08-04T15:26:07.921Z,99604.59
2022-08-04T15:28:36.128Z,99604.72
2022-08-04T15:31:04.222Z,99603.56
2022-08-04T15:33:33.736Z,99604.72
2022-08-04T15:36:10.726Z,99605.50
2022-08-04T15:38:56.932Z,99608.88
2022-08-04T15:41:54.969Z,99602.56
2022-08-04T15:44:38.497Z,99599.44
2022-08-04T15:47:13.179Z,99592.41
2022-08-04T15:49:41.776Z,99588.63
2022-08-04T15:52:15.808Z,99594.31
2022-08-04T15:54:52.803Z,99586.88
2022-08-04T15:57:58.612Z,99581.97
2022-08-04T16:00:26.275Z,99582.28
2022-08-04T16:02:53.905Z,99578.94
2022-08-04T16:05:21.195Z,99576.69
2022-08-04T16:08:11.058Z,99586.00
2022-08-04T16:10:40.172Z,99584.50
2022-08-04T16:13:09.326Z,99579.63
2022-08-04T16:15:41.353Z,99584.09
2022-08-04T16:18:14.203Z,99583.91
2022-08-04T16:20:58.221Z,99589.28
2022-08-04T16:23:55.123Z,99581.87
2022-08-04T16:26:36.947Z,99581.75
2022-08-04T16:29:32.299Z,99579.81
2022-08-04T16:32:06.014Z,99580.88
2022-08-04T16:34:50.316Z,99576.16
2022-08-04T16:37:22.290Z,99571.63
2022-08-04T16:39:51.796Z,99577.84
2022-08-04T16:42:28.578Z,99577.97
2022-08-04T16:45:08.311Z,99574.19
2022-08-04T16:47:47.523Z,99576.94
2022-08-04T16:50:20.179Z,99567.44
2022-08-04T16:52:52.066Z,99573.00
2022-08-04T16:55:27.356Z,99571.88
2022-08-04T16:57:57.273Z,99575.75
2022-08-04T17:00:36.055Z,99569.28
2022-08-04T17:03:07.266Z,99579.94
2022-08-04T17:05:39.783Z,99575.56
2022-08-04T17:10:56.307Z,99576.78
2022-08-04T17:14:02.893Z,99572.34
2022-08-04T17:16:18.053Z,99581.78
2022-08-04T17:18:47.884Z,99584.34
2022-08-04T17:21:22.141Z,99583.41
2022-08-04T17:24:14.438Z,99584.72
2022-08-04T17:26:41.793Z,99580.53
2022-08-04T17:29:13.310Z,99587.31
2022-08-04T17:31:48.036Z,99585.06
2022-08-04T17:34:19.134Z,99585.88
2022-08-04T17:36:47.449Z,99582.78
2022-08-04T17:39:21.461Z,99588.91
2022-08-04T17:41:49.658Z,99588.91
2022-08-04T17:44:17.700Z,99590.37
2022-08-04T17:46:48.385Z,99595.31
2022-08-04T17:49:19.061Z,99597.94
2022-08-04T17:52:05.073Z,99601.12
2022-08-04T17:54:39.557Z,99600.44
2022-08-04T17:57:15.834Z,99596.09
2022-08-04T17:59:55.517Z,99595.44
2022-08-04T18:02:32.482Z,99591.34
2022-08-04T18:05:06.197Z,99589.53
2022-08-04T18:10:52.575Z,99592.75
2022-08-04T18:13:25.213Z,99592.62
2022-08-04T18:16:05.889Z,99596.75
2022-08-04T18:18:40.121Z,99594.19
2022-08-04T18:21:16.598Z,99605.00
2022-08-04T18:23:50.967Z,99600.78
2022-08-04T18:26:18.909Z,99612.03
2022-08-04T18:28:51.526Z,99608.88
2022-08-04T18:31:19.185Z,99612.59
2022-08-04T18:33:59.068Z,99610.84
2022-08-04T18:36:34.558Z,99612.28
2022-08-04T18:39:12.903Z,99618.09
2022-08-04T18:42:01.770Z,99616.00
2022-08-04T18:44:29.494Z,99623.28
2022-08-04T18:47:19.380Z,99620.56
2022-08-04T18:51:01.836Z,99633.47
2022-08-04T18:52:34.592Z,99620.66
2022-08-04T18:55:02.300Z,99627.78
2022-08-04T18:57:58.458Z,99631.66
2022-08-04T19:00:20.001Z,99628.37
2022-08-04T19:02:47.761Z,99630.41
2022-08-04T19:05:17.508Z,99631.22
2022-08-04T19:08:11.619Z,99639.62
2022-08-04T19:10:33.125Z,99634.13
2022-08-04T19:13:03.086Z,99644.78
2022-08-04T19:15:50.661Z,99639.84
2022-08-04T19:18:18.689Z,99639.47
2022-08-04T19:20:46.890Z,99650.84
2022-08-04T19:24:29.104Z,99642.50
2022-08-04T19:26:10.007Z,99647.47
2022-08-04T19:28:47.367Z,99648.88
2022-08-04T19:31:17.030Z,99645.16
2022-08-04T19:33:59.576Z,99651.25
2022-08-04T19:36:33.160Z,99652.25
2022-08-04T19:39:02.365Z,99656.97
2022-08-04T19:41:31.819Z,99653.53
2022-08-04T19:43:59.519Z,99656.00
2022-08-04T19:46:28.007Z,99653.44
2022-08-04T19:48:59.400Z,99655.06
2022-08-04T19:51:30.278Z,99658.31
2022-08-04T19:54:02.962Z,99655.06
2022-08-04T19:56:40.208Z,99661.53
2022-08-04T19:59:11.712Z,99667.00
2022-08-04T20:01:44.536Z,99667.59
2022-08-04T20:04:14.526Z,99657.31
2022-08-04T20:06:42.606Z,99666.00
2022-08-04T20:09:25.123Z,99668.34
2022-08-04T20:11:57.475Z,99667.94
2022-08-04T20:14:32.169Z,99668.28
2022-08-04T20:17:01.501Z,99667.03
2022-08-04T20:19:30.581Z,99670.63
2022-08-04T20:21:58.342Z,99669.81
2022-08-04T20:24:36.537Z,99671.72
2022-08-04T20:27:09.007Z,99672.97
2022-08-04T20:29:48.625Z,99676.75
2022-08-04T20:32:21.885Z,99672.34
2022-08-04T20:34:51.375Z,99685.59
2022-08-04T20:37:25.895Z,99681.25
2022-08-04T20:40:13.308Z,99685.38
2022-08-04T20:42:40.845Z,99684.12
2022-08-04T20:45:16.296Z,99684.94
2022-08-04T20:47:54.118Z,99684.41
2022-08-04T20:53:16.775Z,99693.53
2022-08-04T20:55:54.770Z,99685.62
2022-08-04T20:58:27.572Z,99692.53
2022-08-04T21:00:55.886Z,99691.38
2022-08-04T21:03:49.853Z,99690.38
2022-08-04T21:06:12.129Z,99693.59
2022-08-04T21:08:39.478Z,99693.34
2022-08-04T21:11:09.018Z,99701.88
2022-08-04T21:13:52.301Z,99700.25
2022-08-04T21:16:54.301Z,99693.38
2022-08-04T21:21:55.490Z,99705.47
2022-08-04T21:24:26.338Z,99705.53
2022-08-04T21:26:56.664Z,99704.72
2022-08-04T21:29:34.595Z,99710.03
2022-08-04T21:32:04.673Z,99699.28
2022-08-04T21:34:39.394Z,99708.03
2022-08-04T21:37:09.367Z,99708.22
2022-08-04T21:39:50.571Z,99713.84
2022-08-04T21:42:27.970Z,99714.66
2022-08-04T21:44:58.268Z,99702.94
2022-08-04T21:47:25.722Z,99717.94
2022-08-04T21:49:56.230Z,99717.81
2022-08-04T21:52:25.105Z,99722.34
2022-08-04T21:54:54.495Z,99725.09
2022-08-04T21:57:25.293Z,99723.41
2022-08-04T21:59:53.145Z,99720.38
2022-08-04T22:02:20.543Z,99719.56
2022-08-04T22:04:49.512Z,99721.00
2022-08-04T22:07:17.004Z,99726.13
2022-08-04T22:10:02.364Z,99729.41
2022-08-04T22:12:31.131Z,99730.50
2022-08-04T22:15:01.329Z,99728.31
2022-08-04T22:17:48.958Z,99726.16
2022-08-04T22:20:28.019Z,99735.44
2022-08-04T22:23:03.393Z,99736.75
2022-08-04T22:25:33.854Z,99739.25
2022-08-04T22:28:08.010Z,99739.69
2022-08-04T22:30:37.238Z,99735.94
2022-08-04T22:33:07.712Z,99735.94
2022-08-04T22:35:44.176Z,99737.00
2022-08-04T22:38:25.270Z,99739.44
2022-08-04T22:41:01.913Z,99741.91
2022-08-04T22:43:33.193Z,99741.91
2022-08-04T22:46:09.394Z,99741.66
2022-08-04T22:48:43.316Z,99745.75
2022-08-04T22:51:12.850Z,99735.44
2022-08-04T22:53:40.931Z,99747.13
2022-08-04T22:56:10.719Z,99732.41
2022-08-04T22:58:44.752Z,99731.56
2022-08-04T23:01:14.952Z,99735.94
2022-08-04T23:03:51.254Z,99725.59
2022-08-04T23:06:24.939Z,99733.75
2022-08-04T23:08:52.721Z,99729.97
2022-08-04T23:11:20.075Z,99732.69
2022-08-04T23:13:49.086Z,99725.31
2022-08-04T23:16:17.729Z,99731.53
2022-08-04T23:18:48.947Z,99729.69
2022-08-04T23:21:17.300Z,99734.91
2022-08-04T23:24:00.885Z,99729.19
2022-08-04T23:26:29.913Z,99721.28
2022-08-04T23:28:57.454Z,99730.03
2022-08-04T23:31:24.985Z,99728.34
2022-08-04T23:34:08.530Z,99717.44
2022-08-04T23:36:35.964Z,99730.00
2022-08-04T23:39:06.254Z,99728.66
2022-08-04T23:41:50.993Z,99723.72
2022-08-04T23:44:24.178Z,99720.72
2022-08-04T23:47:02.890Z,99722.66
2022-08-04T23:49:44.108Z,99721.28
2022-08-04T23:52:27.720Z,99722.09
2022-08-04T23:55:00.365Z,99726.47
2022-08-04T23:58:02.293Z,99719.13
